sensor_id;sensor_type;location;lat;lon;timestamp;P1;durP1;ratioP1;P2;durP2;ratioP2
6547;SDS011;3307;52.416;16.862;2022-11-20T00:00:48;20.10;;;14.17;;
6547;SDS011;3307;52.416;16.862;2022-11-20T00:03:13;20.00;;;13.80;;
6547;SDS011;3307;52.416;16.862;2022-11-20T00:05:39;19.53;;;13.47;;
6547;SDS011;3307;52.416;16.862;2022-11-20T00:08:04;17.73;;;13.03;;
6547;SDS011;3307;52.416;16.862;2022-11-20T00:10:30;19.97;;;13.47;;
6547;SDS011;3307;52.416;16.862;2022-11-20T00:12:57;19.17;;;14.23;;
6547;SDS011;3307;52.416;16.862;2022-11-20T00:15:23;15.63;;;13.07;;
6547;SDS011;3307;52.416;16.862;2022-11-20T00:17:48;17.80;;;12.50;;
6547;SDS011;3307;52.416;16.862;2022-11-20T00:20:14;19.03;;;12.13;;
6547;SDS011;3307;52.416;16.862;2022-11-20T00:22:39;16.20;;;12.27;;
6547;SDS011;3307;52.416;16.862;2022-11-20T00:25:05;16.10;;;12.17;;
6547;SDS011;3307;52.416;16.862;2022-11-20T00:27:31;12.97;;;11.57;;
6547;SDS011;3307;52.416;16.862;2022-11-20T00:29:56;14.53;;;12.53;;
6547;SDS011;3307;52.416;16.862;2022-11-20T00:32:21;17.27;;;13.00;;
6547;SDS011;3307;52.416;16.862;2022-11-20T00:34:47;15.50;;;11.87;;
6547;SDS011;3307;52.416;16.862;2022-11-20T00:37:12;15.43;;;10.30;;
6547;SDS011;3307;52.416;16.862;2022-11-20T00:39:38;13.63;;;10.10;;
6547;SDS011;3307;52.416;16.862;2022-11-20T00:42:03;13.97;;;9.63;;
6547;SDS011;3307;52.416;16.862;2022-11-20T00:44:28;16.33;;;11.27;;
6547;SDS011;3307;52.416;16.862;2022-11-20T00:46:54;16.63;;;11.80;;
6547;SDS011;3307;52.416;16.862;2022-11-20T00:49:19;15.27;;;10.50;;
6547;SDS011;3307;52.416;16.862;2022-11-20T00:51:45;13.20;;;9.73;;
6547;SDS011;3307;52.416;16.862;2022-11-20T00:54:10;11.53;;;10.07;;
6547;SDS011;3307;52.416;16.862;2022-11-20T00:56:36;14.90;;;10.73;;
6547;SDS011;3307;52.416;16.862;2022-11-20T00:59:01;15.23;;;10.87;;
6547;SDS011;3307;52.416;16.862;2022-11-20T01:01:27;13.18;;;10.88;;
6547;SDS011;3307;52.416;16.862;2022-11-20T01:03:55;16.00;;;11.98;;
6547;SDS011;3307;52.416;16.862;2022-11-20T01:06:23;16.70;;;11.15;;
6547;SDS011;3307;52.416;16.862;2022-11-20T01:08:50;17.95;;;12.50;;
6547;SDS011;3307;52.416;16.862;2022-11-20T01:11:18;13.60;;;11.40;;
6547;SDS011;3307;52.416;16.862;2022-11-20T01:13:46;15.32;;;11.77;;
6547;SDS011;3307;52.416;16.862;2022-11-20T01:16:22;17.35;;;12.18;;
6547;SDS011;3307;52.416;16.862;2022-11-20T01:18:51;14.10;;;10.68;;
6547;SDS011;3307;52.416;16.862;2022-11-20T01:21:19;14.70;;;10.40;;
6547;SDS011;3307;52.416;16.862;2022-11-20T01:23:46;15.65;;;11.55;;
6547;SDS011;3307;52.416;16.862;2022-11-20T01:26:13;17.00;;;10.90;;
6547;SDS011;3307;52.416;16.862;2022-11-20T01:28:40;14.48;;;11.68;;
6547;SDS011;3307;52.416;16.862;2022-11-20T01:33:38;19.33;;;12.25;;
6547;SDS011;3307;52.416;16.862;2022-11-20T01:36:06;15.95;;;11.38;;
6547;SDS011;3307;52.416;16.862;2022-11-20T01:38:32;19.88;;;12.73;;
6547;SDS011;3307;52.416;16.862;2022-11-20T01:40:57;15.77;;;11.30;;
6547;SDS011;3307;52.416;16.862;2022-11-20T01:43:22;14.87;;;11.70;;
6547;SDS011;3307;52.416;16.862;2022-11-20T01:48:44;16.83;;;12.65;;
6547;SDS011;3307;52.416;16.862;2022-11-20T01:51:19;15.55;;;12.93;;
6547;SDS011;3307;52.416;16.862;2022-11-20T01:53:51;16.02;;;11.90;;
6547;SDS011;3307;52.416;16.862;2022-11-20T01:56:18;18.05;;;13.13;;
6547;SDS011;3307;52.416;16.862;2022-11-20T01:58:45;16.70;;;13.13;;
6547;SDS011;3307;52.416;16.862;2022-11-20T02:01:15;16.45;;;12.10;;
6547;SDS011;3307;52.416;16.862;2022-11-20T02:03:41;17.27;;;13.37;;
6547;SDS011;3307;52.416;16.862;2022-11-20T02:06:11;14.40;;;10.80;;
6547;SDS011;3307;52.416;16.862;2022-11-20T02:08:47;18.33;;;12.82;;
6547;SDS011;3307;52.416;16.862;2022-11-20T02:11:12;19.60;;;13.07;;
6547;SDS011;3307;52.416;16.862;2022-11-20T02:13:38;22.17;;;14.20;;
6547;SDS011;3307;52.416;16.862;2022-11-20T02:16:14;19.25;;;13.48;;
6547;SDS011;3307;52.416;16.862;2022-11-20T02:18:42;19.42;;;14.38;;
6547;SDS011;3307;52.416;16.862;2022-11-20T02:21:25;18.58;;;13.90;;
6547;SDS011;3307;52.416;16.862;2022-11-20T02:24:00;19.38;;;14.68;;
6547;SDS011;3307;52.416;16.862;2022-11-20T02:26:26;20.50;;;14.43;;
6547;SDS011;3307;52.416;16.862;2022-11-20T02:28:54;18.45;;;13.70;;
6547;SDS011;3307;52.416;16.862;2022-11-20T02:31:19;20.05;;;13.15;;
6547;SDS011;3307;52.416;16.862;2022-11-20T02:33:45;19.37;;;13.83;;
6547;SDS011;3307;52.416;16.862;2022-11-20T02:36:11;17.90;;;13.23;;
6547;SDS011;3307;52.416;16.862;2022-11-20T02:38:40;20.40;;;14.73;;
6547;SDS011;3307;52.416;16.862;2022-11-20T02:41:05;21.33;;;16.13;;
6547;SDS011;3307;52.416;16.862;2022-11-20T02:43:31;20.23;;;16.13;;
6547;SDS011;3307;52.416;16.862;2022-11-20T02:45:56;19.70;;;14.53;;
6547;SDS011;3307;52.416;16.862;2022-11-20T02:48:21;18.70;;;14.53;;
6547;SDS011;3307;52.416;16.862;2022-11-20T02:50:47;17.77;;;13.53;;
6547;SDS011;3307;52.416;16.862;2022-11-20T02:53:12;17.97;;;12.80;;
6547;SDS011;3307;52.416;16.862;2022-11-20T02:55:38;22.20;;;15.53;;
6547;SDS011;3307;52.416;16.862;2022-11-20T02:58:03;22.77;;;15.83;;
6547;SDS011;3307;52.416;16.862;2022-11-20T03:00:29;19.90;;;13.90;;
6547;SDS011;3307;52.416;16.862;2022-11-20T03:02:54;18.90;;;12.97;;
6547;SDS011;3307;52.416;16.862;2022-11-20T03:05:19;20.30;;;14.70;;
6547;SDS011;3307;52.416;16.862;2022-11-20T03:07:45;20.67;;;14.87;;
6547;SDS011;3307;52.416;16.862;2022-11-20T03:10:10;17.77;;;13.13;;
6547;SDS011;3307;52.416;16.862;2022-11-20T03:12:36;23.37;;;16.80;;
6547;SDS011;3307;52.416;16.862;2022-11-20T03:15:01;20.50;;;15.10;;
6547;SDS011;3307;52.416;16.862;2022-11-20T03:17:26;22.80;;;15.90;;
6547;SDS011;3307;52.416;16.862;2022-11-20T03:19:52;25.80;;;16.67;;
6547;SDS011;3307;52.416;16.862;2022-11-20T03:22:17;22.83;;;17.08;;
6547;SDS011;3307;52.416;16.862;2022-11-20T03:24:43;25.73;;;17.80;;
6547;SDS011;3307;52.416;16.862;2022-11-20T03:27:08;21.50;;;16.10;;
6547;SDS011;3307;52.416;16.862;2022-11-20T03:29:34;18.90;;;15.17;;
6547;SDS011;3307;52.416;16.862;2022-11-20T03:32:00;20.45;;;15.32;;
6547;SDS011;3307;52.416;16.862;2022-11-20T03:34:25;18.83;;;13.20;;
6547;SDS011;3307;52.416;16.862;2022-11-20T03:36:51;21.37;;;15.43;;
6547;SDS011;3307;52.416;16.862;2022-11-20T03:39:16;23.57;;;17.90;;
6547;SDS011;3307;52.416;16.862;2022-11-20T03:41:41;21.17;;;15.33;;
6547;SDS011;3307;52.416;16.862;2022-11-20T03:44:08;21.08;;;17.50;;
6547;SDS011;3307;52.416;16.862;2022-11-20T03:46:35;18.60;;;14.05;;
6547;SDS011;3307;52.416;16.862;2022-11-20T03:49:00;20.50;;;16.10;;
6547;SDS011;3307;52.416;16.862;2022-11-20T03:51:26;18.57;;;15.17;;
6547;SDS011;3307;52.416;16.862;2022-11-20T03:53:54;23.23;;;15.77;;
6547;SDS011;3307;52.416;16.862;2022-11-20T03:56:22;22.98;;;15.68;;
6547;SDS011;3307;52.416;16.862;2022-11-20T03:58:48;21.00;;;14.90;;
6547;SDS011;3307;52.416;16.862;2022-11-20T04:01:15;24.20;;;15.70;;
6547;SDS011;3307;52.416;16.862;2022-11-20T04:03:47;20.50;;;14.23;;
6547;SDS011;3307;52.416;16.862;2022-11-20T04:06:14;18.02;;;12.57;;
6547;SDS011;3307;52.416;16.862;2022-11-20T04:08:41;19.92;;;13.63;;
6547;SDS011;3307;52.416;16.862;2022-11-20T04:11:08;21.63;;;14.70;;
6547;SDS011;3307;52.416;16.862;2022-11-20T04:13:45;20.65;;;15.02;;
6547;SDS011;3307;52.416;16.862;2022-11-20T04:16:12;20.77;;;15.90;;
6547;SDS011;3307;52.416;16.862;2022-11-20T04:18:38;23.20;;;15.47;;
6547;SDS011;3307;52.416;16.862;2022-11-20T04:21:04;22.20;;;16.40;;
6547;SDS011;3307;52.416;16.862;2022-11-20T04:23:30;22.00;;;15.30;;
6547;SDS011;3307;52.416;16.862;2022-11-20T04:26:00;22.10;;;14.30;;
6547;SDS011;3307;52.416;16.862;2022-11-20T04:28:27;25.15;;;18.15;;
6547;SDS011;3307;52.416;16.862;2022-11-20T04:30:52;20.87;;;14.77;;
6547;SDS011;3307;52.416;16.862;2022-11-20T04:33:18;24.37;;;15.50;;
6547;SDS011;3307;52.416;16.862;2022-11-20T04:35:43;19.43;;;14.07;;
6547;SDS011;3307;52.416;16.862;2022-11-20T04:38:10;22.83;;;15.43;;
6547;SDS011;3307;52.416;16.862;2022-11-20T04:40:35;24.67;;;16.63;;
6547;SDS011;3307;52.416;16.862;2022-11-20T04:43:00;24.90;;;15.17;;
6547;SDS011;3307;52.416;16.862;2022-11-20T04:45:26;23.80;;;16.50;;
6547;SDS011;3307;52.416;16.862;2022-11-20T04:47:51;26.33;;;17.20;;
6547;SDS011;3307;52.416;16.862;2022-11-20T04:50:16;20.50;;;15.80;;
6547;SDS011;3307;52.416;16.862;2022-11-20T04:52:42;17.63;;;13.10;;
6547;SDS011;3307;52.416;16.862;2022-11-20T04:55:07;26.13;;;16.00;;
6547;SDS011;3307;52.416;16.862;2022-11-20T04:57:33;21.20;;;15.10;;
6547;SDS011;3307;52.416;16.862;2022-11-20T04:59:58;20.73;;;14.93;;
6547;SDS011;3307;52.416;16.862;2022-11-20T05:02:23;20.10;;;14.20;;
6547;SDS011;3307;52.416;16.862;2022-11-20T05:04:49;23.13;;;15.30;;
6547;SDS011;3307;52.416;16.862;2022-11-20T05:07:14;22.30;;;13.57;;
6547;SDS011;3307;52.416;16.862;2022-11-20T05:09:40;17.17;;;13.27;;
6547;SDS011;3307;52.416;16.862;2022-11-20T05:12:07;18.43;;;12.60;;
6547;SDS011;3307;52.416;16.862;2022-11-20T05:14:33;19.45;;;12.23;;
6547;SDS011;3307;52.416;16.862;2022-11-20T05:16:58;19.67;;;14.13;;
6547;SDS011;3307;52.416;16.862;2022-11-20T05:19:24;18.40;;;13.50;;
6547;SDS011;3307;52.416;16.862;2022-11-20T05:21:49;22.13;;;15.53;;
6547;SDS011;3307;52.416;16.862;2022-11-20T05:24:15;21.93;;;14.27;;
6547;SDS011;3307;52.416;16.862;2022-11-20T05:26:40;17.20;;;14.17;;
6547;SDS011;3307;52.416;16.862;2022-11-20T05:29:05;18.67;;;13.73;;
6547;SDS011;3307;52.416;16.862;2022-11-20T05:31:31;17.20;;;14.27;;
6547;SDS011;3307;52.416;16.862;2022-11-20T05:33:56;17.57;;;13.27;;
6547;SDS011;3307;52.416;16.862;2022-11-20T05:36:22;20.57;;;14.30;;
6547;SDS011;3307;52.416;16.862;2022-11-20T05:38:48;20.30;;;14.02;;
6547;SDS011;3307;52.416;16.862;2022-11-20T05:41:15;18.53;;;14.70;;
6547;SDS011;3307;52.416;16.862;2022-11-20T05:43:42;20.85;;;13.10;;
6547;SDS011;3307;52.416;16.862;2022-11-20T05:46:09;20.20;;;15.70;;
6547;SDS011;3307;52.416;16.862;2022-11-20T05:48:36;24.40;;;15.60;;
6547;SDS011;3307;52.416;16.862;2022-11-20T05:51:03;19.70;;;14.98;;
6547;SDS011;3307;52.416;16.862;2022-11-20T05:53:29;20.35;;;12.63;;
6547;SDS011;3307;52.416;16.862;2022-11-20T05:56:02;21.43;;;15.70;;
6547;SDS011;3307;52.416;16.862;2022-11-20T05:58:30;21.88;;;15.77;;
6547;SDS011;3307;52.416;16.862;2022-11-20T06:01:03;23.75;;;16.00;;
6547;SDS011;3307;52.416;16.862;2022-11-20T06:03:36;24.38;;;15.80;;
6547;SDS011;3307;52.416;16.862;2022-11-20T06:06:02;22.75;;;15.80;;
6547;SDS011;3307;52.416;16.862;2022-11-20T06:08:29;23.50;;;17.13;;
6547;SDS011;3307;52.416;16.862;2022-11-20T06:10:54;24.07;;;16.40;;
6547;SDS011;3307;52.416;16.862;2022-11-20T06:13:20;22.97;;;17.57;;
6547;SDS011;3307;52.416;16.862;2022-11-20T06:15:52;24.60;;;17.13;;
6547;SDS011;3307;52.416;16.862;2022-11-20T06:18:18;24.48;;;16.33;;
6547;SDS011;3307;52.416;16.862;2022-11-20T06:20:44;23.52;;;16.50;;
6547;SDS011;3307;52.416;16.862;2022-11-20T06:23:10;24.73;;;18.40;;
6547;SDS011;3307;52.416;16.862;2022-11-20T06:25:42;26.40;;;17.87;;
6547;SDS011;3307;52.416;16.862;2022-11-20T06:28:08;30.48;;;19.42;;
6547;SDS011;3307;52.416;16.862;2022-11-20T06:30:34;30.33;;;18.58;;
6547;SDS011;3307;52.416;16.862;2022-11-20T06:33:00;25.10;;;17.80;;
6547;SDS011;3307;52.416;16.862;2022-11-20T06:35:26;27.33;;;16.83;;
6547;SDS011;3307;52.416;16.862;2022-11-20T06:37:51;31.10;;;18.40;;
6547;SDS011;3307;52.416;16.862;2022-11-20T06:40:16;29.00;;;19.90;;
6547;SDS011;3307;52.416;16.862;2022-11-20T06:42:42;25.17;;;16.47;;
6547;SDS011;3307;52.416;16.862;2022-11-20T06:45:07;26.10;;;17.50;;
6547;SDS011;3307;52.416;16.862;2022-11-20T06:47:33;25.45;;;18.15;;
6547;SDS011;3307;52.416;16.862;2022-11-20T06:49:59;27.30;;;17.10;;
6547;SDS011;3307;52.416;16.862;2022-11-20T06:52:24;20.03;;;13.30;;
6547;SDS011;3307;52.416;16.862;2022-11-20T06:54:49;23.07;;;15.43;;
6547;SDS011;3307;52.416;16.862;2022-11-20T06:57:15;25.70;;;17.27;;
6547;SDS011;3307;52.416;16.862;2022-11-20T06:59:40;24.00;;;15.77;;
6547;SDS011;3307;52.416;16.862;2022-11-20T07:02:08;26.23;;;15.50;;
6547;SDS011;3307;52.416;16.862;2022-11-20T07:04:35;24.33;;;17.83;;
6547;SDS011;3307;52.416;16.862;2022-11-20T07:07:01;27.10;;;18.23;;
6547;SDS011;3307;52.416;16.862;2022-11-20T07:09:26;26.40;;;19.03;;
6547;SDS011;3307;52.416;16.862;2022-11-20T07:11:51;28.70;;;17.50;;
6547;SDS011;3307;52.416;16.862;2022-11-20T07:14:17;28.77;;;19.37;;
6547;SDS011;3307;52.416;16.862;2022-11-20T07:16:42;32.13;;;20.13;;
6547;SDS011;3307;52.416;16.862;2022-11-20T07:19:08;25.10;;;16.87;;
6547;SDS011;3307;52.416;16.862;2022-11-20T07:21:33;26.13;;;18.70;;
6547;SDS011;3307;52.416;16.862;2022-11-20T07:23:58;31.53;;;20.97;;
6547;SDS011;3307;52.416;16.862;2022-11-20T07:26:24;31.00;;;19.50;;
6547;SDS011;3307;52.416;16.862;2022-11-20T07:28:49;26.03;;;17.93;;
6547;SDS011;3307;52.416;16.862;2022-11-20T07:31:14;34.87;;;21.17;;
6547;SDS011;3307;52.416;16.862;2022-11-20T07:33:40;26.90;;;19.17;;
6547;SDS011;3307;52.416;16.862;2022-11-20T07:36:05;30.07;;;20.40;;
6547;SDS011;3307;52.416;16.862;2022-11-20T07:38:31;28.00;;;20.67;;
6547;SDS011;3307;52.416;16.862;2022-11-20T07:40:57;28.60;;;19.40;;
6547;SDS011;3307;52.416;16.862;2022-11-20T07:43:28;29.95;;;20.98;;
6547;SDS011;3307;52.416;16.862;2022-11-20T07:45:57;30.27;;;21.23;;
6547;SDS011;3307;52.416;16.862;2022-11-20T07:48:23;29.40;;;21.55;;
6547;SDS011;3307;52.416;16.862;2022-11-20T07:50:49;26.75;;;18.65;;
6547;SDS011;3307;52.416;16.862;2022-11-20T07:53:18;26.00;;;18.08;;
6547;SDS011;3307;52.416;16.862;2022-11-20T07:55:45;28.02;;;20.48;;
6547;SDS011;3307;52.416;16.862;2022-11-20T07:58:11;32.20;;;21.33;;
6547;SDS011;3307;52.416;16.862;2022-11-20T08:00:36;27.40;;;19.20;;
6547;SDS011;3307;52.416;16.862;2022-11-20T08:03:03;26.67;;;19.20;;
6547;SDS011;3307;52.416;16.862;2022-11-20T08:05:29;28.38;;;19.88;;
6547;SDS011;3307;52.416;16.862;2022-11-20T08:07:54;25.43;;;19.30;;
6547;SDS011;3307;52.416;16.862;2022-11-20T08:10:20;23.00;;;17.30;;
6547;SDS011;3307;52.416;16.862;2022-11-20T08:12:49;23.33;;;18.47;;
6547;SDS011;3307;52.416;16.862;2022-11-20T08:15:35;26.02;;;18.27;;
6547;SDS011;3307;52.416;16.862;2022-11-20T08:20:33;26.98;;;18.02;;
6547;SDS011;3307;52.416;16.862;2022-11-20T08:23:03;27.15;;;18.05;;
6547;SDS011;3307;52.416;16.862;2022-11-20T08:25:33;26.15;;;18.73;;
6547;SDS011;3307;52.416;16.862;2022-11-20T08:28:00;23.50;;;15.85;;
6547;SDS011;3307;52.416;16.862;2022-11-20T08:30:27;24.83;;;17.83;;
6547;SDS011;3307;52.416;16.862;2022-11-20T08:32:53;31.50;;;19.07;;
6547;SDS011;3307;52.416;16.862;2022-11-20T08:35:19;25.13;;;17.87;;
6547;SDS011;3307;52.416;16.862;2022-11-20T08:37:46;24.60;;;18.65;;
6547;SDS011;3307;52.416;16.862;2022-11-20T08:40:12;24.25;;;18.27;;
6547;SDS011;3307;52.416;16.862;2022-11-20T08:42:45;23.90;;;18.27;;
6547;SDS011;3307;52.416;16.862;2022-11-20T08:45:11;25.65;;;16.27;;
6547;SDS011;3307;52.416;16.862;2022-11-20T08:47:36;27.23;;;18.93;;
6547;SDS011;3307;52.416;16.862;2022-11-20T08:50:01;28.50;;;18.30;;
6547;SDS011;3307;52.416;16.862;2022-11-20T08:52:27;23.63;;;18.20;;
6547;SDS011;3307;52.416;16.862;2022-11-20T08:54:53;24.33;;;17.90;;
6547;SDS011;3307;52.416;16.862;2022-11-20T08:57:18;35.30;;;20.40;;
6547;SDS011;3307;52.416;16.862;2022-11-20T08:59:44;24.33;;;16.00;;
6547;SDS011;3307;52.416;16.862;2022-11-20T09:02:09;25.13;;;16.80;;
6547;SDS011;3307;52.416;16.862;2022-11-20T09:04:34;23.70;;;15.70;;
6547;SDS011;3307;52.416;16.862;2022-11-20T09:07:00;24.30;;;18.30;;
6547;SDS011;3307;52.416;16.862;2022-11-20T09:09:25;27.77;;;20.50;;
6547;SDS011;3307;52.416;16.862;2022-11-20T09:11:51;25.47;;;18.07;;
6547;SDS011;3307;52.416;16.862;2022-11-20T09:14:16;21.53;;;17.00;;
6547;SDS011;3307;52.416;16.862;2022-11-20T09:16:41;26.47;;;16.13;;
6547;SDS011;3307;52.416;16.862;2022-11-20T09:19:07;28.87;;;17.37;;
6547;SDS011;3307;52.416;16.862;2022-11-20T09:21:32;24.90;;;18.37;;
6547;SDS011;3307;52.416;16.862;2022-11-20T09:23:58;26.20;;;17.50;;
6547;SDS011;3307;52.416;16.862;2022-11-20T09:26:23;26.90;;;18.63;;
6547;SDS011;3307;52.416;16.862;2022-11-20T09:28:48;25.27;;;18.27;;
6547;SDS011;3307;52.416;16.862;2022-11-20T09:31:19;21.30;;;15.43;;
6547;SDS011;3307;52.416;16.862;2022-11-20T09:33:47;25.00;;;15.75;;
6547;SDS011;3307;52.416;16.862;2022-11-20T09:36:13;26.10;;;17.23;;
6547;SDS011;3307;52.416;16.862;2022-11-20T09:38:39;28.05;;;19.35;;
6547;SDS011;3307;52.416;16.862;2022-11-20T09:41:05;23.90;;;17.10;;
6547;SDS011;3307;52.416;16.862;2022-11-20T09:43:50;27.52;;;17.58;;
6547;SDS011;3307;52.416;16.862;2022-11-20T09:49:22;22.05;;;15.77;;
6547;SDS011;3307;52.416;16.862;2022-11-20T09:52:00;23.42;;;16.45;;
6547;SDS011;3307;52.416;16.862;2022-11-20T09:54:31;21.27;;;15.68;;
6547;SDS011;3307;52.416;16.862;2022-11-20T09:56:59;31.20;;;18.83;;
6547;SDS011;3307;52.416;16.862;2022-11-20T09:59:43;24.92;;;16.73;;
6547;SDS011;3307;52.416;16.862;2022-11-20T10:02:15;22.55;;;15.60;;
6547;SDS011;3307;52.416;16.862;2022-11-20T10:05:02;22.15;;;16.38;;
6547;SDS011;3307;52.416;16.862;2022-11-20T10:09:59;21.75;;;16.58;;
6547;SDS011;3307;52.416;16.862;2022-11-20T10:12:31;26.33;;;17.23;;
6547;SDS011;3307;52.416;16.862;2022-11-20T10:26:11;23.20;;;16.92;;
6547;SDS011;3307;52.416;16.862;2022-11-20T10:31:50;24.48;;;15.65;;
6547;SDS011;3307;52.416;16.862;2022-11-20T10:34:23;19.20;;;13.73;;
6547;SDS011;3307;52.416;16.862;2022-11-20T10:36:54;18.55;;;12.98;;
6547;SDS011;3307;52.416;16.862;2022-11-20T10:39:39;24.23;;;15.55;;
6547;SDS011;3307;52.416;16.862;2022-11-20T10:42:14;20.73;;;14.73;;
6547;SDS011;3307;52.416;16.862;2022-11-20T10:44:43;21.85;;;15.15;;
6547;SDS011;3307;52.416;16.862;2022-11-20T10:47:26;22.20;;;16.23;;
6547;SDS011;3307;52.416;16.862;2022-11-20T10:49:53;23.63;;;16.42;;
6547;SDS011;3307;52.416;16.862;2022-11-20T10:52:23;23.48;;;17.33;;
6547;SDS011;3307;52.416;16.862;2022-11-20T11:00:35;21.58;;;15.80;;
6547;SDS011;3307;52.416;16.862;2022-11-20T11:03:00;32.43;;;18.40;;
6547;SDS011;3307;52.416;16.862;2022-11-20T11:05:38;24.08;;;17.50;;
6547;SDS011;3307;52.416;16.862;2022-11-20T11:08:09;20.05;;;16.30;;
6547;SDS011;3307;52.416;16.862;2022-11-20T11:10:53;18.90;;;14.27;;
6547;SDS011;3307;52.416;16.862;2022-11-20T11:13:25;19.70;;;15.55;;
6547;SDS011;3307;52.416;16.862;2022-11-20T11:15:51;21.02;;;15.10;;
6547;SDS011;3307;52.416;16.862;2022-11-20T11:18:27;19.63;;;13.53;;
6547;SDS011;3307;52.416;16.862;2022-11-20T11:20:55;16.98;;;13.57;;
6547;SDS011;3307;52.416;16.862;2022-11-20T11:23:40;20.33;;;14.18;;
6547;SDS011;3307;52.416;16.862;2022-11-20T11:26:18;17.15;;;12.38;;
6547;SDS011;3307;52.416;16.862;2022-11-20T11:28:55;17.30;;;13.88;;
6547;SDS011;3307;52.416;16.862;2022-11-20T11:31:25;17.48;;;13.85;;
6547;SDS011;3307;52.416;16.862;2022-11-20T11:34:03;20.17;;;13.70;;
6547;SDS011;3307;52.416;16.862;2022-11-20T11:36:30;15.23;;;12.60;;
6547;SDS011;3307;52.416;16.862;2022-11-20T11:38:57;18.52;;;14.77;;
6547;SDS011;3307;52.416;16.862;2022-11-20T11:41:24;20.50;;;14.13;;
6547;SDS011;3307;52.416;16.862;2022-11-20T11:43:54;17.95;;;14.80;;
6547;SDS011;3307;52.416;16.862;2022-11-20T11:46:41;23.40;;;16.38;;
6547;SDS011;3307;52.416;16.862;2022-11-20T11:49:15;20.25;;;15.55;;
6547;SDS011;3307;52.416;16.862;2022-11-20T11:51:47;20.60;;;12.85;;
6547;SDS011;3307;52.416;16.862;2022-11-20T11:54:20;19.45;;;15.27;;
6547;SDS011;3307;52.416;16.862;2022-11-20T11:57:10;21.42;;;14.40;;
6547;SDS011;3307;52.416;16.862;2022-11-20T12:02:35;18.48;;;14.32;;
6547;SDS011;3307;52.416;16.862;2022-11-20T12:05:20;24.35;;;16.23;;
6547;SDS011;3307;52.416;16.862;2022-11-20T12:07:58;23.88;;;15.80;;
6547;SDS011;3307;52.416;16.862;2022-11-20T12:13:15;22.90;;;16.38;;
6547;SDS011;3307;52.416;16.862;2022-11-20T12:15:44;20.40;;;16.30;;
6547;SDS011;3307;52.416;16.862;2022-11-20T12:18:13;22.20;;;16.92;;
6547;SDS011;3307;52.416;16.862;2022-11-20T12:20:41;27.98;;;17.70;;
6547;SDS011;3307;52.416;16.862;2022-11-20T12:29:37;29.38;;;19.20;;
6547;SDS011;3307;52.416;16.862;2022-11-20T12:32:15;26.42;;;18.67;;
6547;SDS011;3307;52.416;16.862;2022-11-20T12:37:54;25.63;;;17.30;;
6547;SDS011;3307;52.416;16.862;2022-11-20T12:43:20;25.13;;;18.00;;
6547;SDS011;3307;52.416;16.862;2022-11-20T12:46:13;25.95;;;18.80;;
6547;SDS011;3307;52.416;16.862;2022-11-20T12:49:05;31.40;;;17.73;;
6547;SDS011;3307;52.416;16.862;2022-11-20T12:57:18;27.45;;;19.38;;
6547;SDS011;3307;52.416;16.862;2022-11-20T12:59:57;27.17;;;18.15;;
6547;SDS011;3307;52.416;16.862;2022-11-20T13:02:53;41.08;;;29.80;;
6547;SDS011;3307;52.416;16.862;2022-11-20T13:13:29;22.50;;;17.52;;
6547;SDS011;3307;52.416;16.862;2022-11-20T13:16:08;23.10;;;17.63;;
6547;SDS011;3307;52.416;16.862;2022-11-20T13:18:38;25.38;;;18.80;;
6547;SDS011;3307;52.416;16.862;2022-11-20T13:21:13;26.85;;;20.25;;
6547;SDS011;3307;52.416;16.862;2022-11-20T13:24:05;26.00;;;18.15;;
6547;SDS011;3307;52.416;16.862;2022-11-20T13:26:32;25.73;;;19.50;;
6547;SDS011;3307;52.416;16.862;2022-11-20T13:29:16;27.53;;;20.00;;
6547;SDS011;3307;52.416;16.862;2022-11-20T13:31:44;26.10;;;20.13;;
6547;SDS011;3307;52.416;16.862;2022-11-20T13:34:22;30.30;;;21.95;;
6547;SDS011;3307;52.416;16.862;2022-11-20T13:36:50;32.35;;;22.45;;
6547;SDS011;3307;52.416;16.862;2022-11-20T13:42:01;41.30;;;27.42;;
6547;SDS011;3307;52.416;16.862;2022-11-20T13:47:03;37.83;;;25.90;;
6547;SDS011;3307;52.416;16.862;2022-11-20T13:49:32;29.07;;;21.87;;
6547;SDS011;3307;52.416;16.862;2022-11-20T13:52:04;35.10;;;25.63;;
6547;SDS011;3307;52.416;16.862;2022-11-20T13:57:47;38.08;;;27.15;;
6547;SDS011;3307;52.416;16.862;2022-11-20T14:00:19;39.88;;;28.15;;
6547;SDS011;3307;52.416;16.862;2022-11-20T14:05:27;36.30;;;27.63;;
6547;SDS011;3307;52.416;16.862;2022-11-20T14:07:53;40.33;;;30.17;;
6547;SDS011;3307;52.416;16.862;2022-11-20T14:10:23;42.07;;;28.27;;
6547;SDS011;3307;52.416;16.862;2022-11-20T14:12:50;38.45;;;28.02;;
6547;SDS011;3307;52.416;16.862;2022-11-20T14:15:29;41.97;;;29.80;;
6547;SDS011;3307;52.416;16.862;2022-11-20T14:17:59;41.92;;;29.05;;
6547;SDS011;3307;52.416;16.862;2022-11-20T14:20:28;40.90;;;27.50;;
6547;SDS011;3307;52.416;16.862;2022-11-20T14:22:56;38.65;;;29.70;;
6547;SDS011;3307;52.416;16.862;2022-11-20T14:25:22;40.80;;;28.03;;
6547;SDS011;3307;52.416;16.862;2022-11-20T14:27:56;39.95;;;27.63;;
6547;SDS011;3307;52.416;16.862;2022-11-20T14:30:25;37.25;;;27.27;;
6547;SDS011;3307;52.416;16.862;2022-11-20T14:33:10;38.80;;;27.48;;
6547;SDS011;3307;52.416;16.862;2022-11-20T14:35:40;42.90;;;28.52;;
6547;SDS011;3307;52.416;16.862;2022-11-20T14:38:11;41.15;;;29.50;;
6547;SDS011;3307;52.416;16.862;2022-11-20T14:40:37;41.78;;;30.65;;
6547;SDS011;3307;52.416;16.862;2022-11-20T14:46:07;41.55;;;32.28;;
6547;SDS011;3307;52.416;16.862;2022-11-20T14:54:14;62.47;;;38.60;;
6547;SDS011;3307;52.416;16.862;2022-11-20T14:56:40;54.47;;;38.00;;
6547;SDS011;3307;52.416;16.862;2022-11-20T14:59:06;56.13;;;39.73;;
6547;SDS011;3307;52.416;16.862;2022-11-20T15:01:33;56.65;;;41.85;;
6547;SDS011;3307;52.416;16.862;2022-11-20T15:04:06;50.95;;;35.95;;
6547;SDS011;3307;52.416;16.862;2022-11-20T15:06:34;52.20;;;36.13;;
6547;SDS011;3307;52.416;16.862;2022-11-20T15:09:01;56.25;;;38.63;;
6547;SDS011;3307;52.416;16.862;2022-11-20T15:11:32;56.65;;;37.65;;
6547;SDS011;3307;52.416;16.862;2022-11-20T15:14:02;54.58;;;37.28;;
6547;SDS011;3307;52.416;16.862;2022-11-20T15:16:30;50.40;;;34.35;;
6547;SDS011;3307;52.416;16.862;2022-11-20T15:18:55;53.33;;;35.50;;
6547;SDS011;3307;52.416;16.862;2022-11-20T15:21:21;52.67;;;38.30;;
6547;SDS011;3307;52.416;16.862;2022-11-20T15:23:47;49.90;;;36.23;;
6547;SDS011;3307;52.416;16.862;2022-11-20T15:26:13;53.67;;;39.50;;
6547;SDS011;3307;52.416;16.862;2022-11-20T15:28:44;53.13;;;38.50;;
6547;SDS011;3307;52.416;16.862;2022-11-20T15:31:13;125.80;;;95.63;;
6547;SDS011;3307;52.416;16.862;2022-11-20T15:33:39;72.80;;;51.53;;
6547;SDS011;3307;52.416;16.862;2022-11-20T15:36:04;64.67;;;45.43;;
6547;SDS011;3307;52.416;16.862;2022-11-20T15:38:30;58.63;;;41.30;;
6547;SDS011;3307;52.416;16.862;2022-11-20T15:40:55;57.90;;;43.10;;
6547;SDS011;3307;52.416;16.862;2022-11-20T15:43:21;63.78;;;44.45;;
6547;SDS011;3307;52.416;16.862;2022-11-20T15:45:51;69.67;;;46.87;;
6547;SDS011;3307;52.416;16.862;2022-11-20T15:48:19;71.13;;;48.40;;
6547;SDS011;3307;52.416;16.862;2022-11-20T15:50:53;88.72;;;55.90;;
6547;SDS011;3307;52.416;16.862;2022-11-20T15:53:24;74.53;;;52.63;;
6547;SDS011;3307;52.416;16.862;2022-11-20T15:55:50;73.43;;;49.23;;
6547;SDS011;3307;52.416;16.862;2022-11-20T15:58:15;78.20;;;52.13;;
6547;SDS011;3307;52.416;16.862;2022-11-20T16:00:44;74.47;;;52.05;;
6547;SDS011;3307;52.416;16.862;2022-11-20T16:03:13;78.63;;;53.20;;
6547;SDS011;3307;52.416;16.862;2022-11-20T16:05:39;77.75;;;55.40;;